Time;durP1;ratioP1;P1;durP2;ratioP2;P2;SDS_P1;SDS_P2;PMS_P1;PMS_P2;Temp;Humidity;BMP_temperature;BMP_pressure;BME280_temperature;BME280_humidity;BME280_pressure;Samples;Min_cycle;Max_cycle;Signal;HPM_P1;HPM_P2
2021/12/16 00:08:58;;;;;;;12.10;8.32;;;7.00;99.90;;;;;;4967508;29;20033;-77
2021/12/16 00:33:40;;;;;;;11.80;7.72;;;7.00;99.90;;;;;;4966457;29;20030;-78
2021/12/16 00:36:07;;;;;;;12.15;8.25;;;7.00;99.90;;;;;;4949570;29;20019;-78
2021/12/16 00:38:34;;;;;;;13.03;8.23;;;7.00;99.90;;;;;;4966979;29;20035;-78
2021/12/16 00:41:00;;;;;;;14.68;8.43;;;7.00;99.90;;;;;;4966354;28;20031;-79
2021/12/16 00:43:36;;;;;;;18.05;8.50;;;7.10;99.90;;;;;;4966883;29;20015;-79
2021/12/16 00:56:34;;;;;;;11.55;7.80;;;7.00;99.90;;;;;;4968882;29;20030;-80
2021/12/16 00:59:02;;;;;;;12.50;7.72;;;7.00;99.90;;;;;;4968149;29;20127;-78
2021/12/16 01:02:06;;;;;;;16.30;7.85;;;7.00;99.90;;;;;;4968173;29;20025;-79
2021/12/16 01:33:39;;;;;;;9.05;6.10;;;7.00;99.90;;;;;;4967703;29;20077;-77
2021/12/16 01:35:40;;;;;;;9.40;6.50;;;7.00;99.90;;;;;;4967998;29;20030;-81
2021/12/16 01:52:42;;;;;;;9.20;5.82;;;7.10;99.90;;;;;;4879989;29;20252;-76
2021/12/16 01:57:22;;;;;;;7.63;5.30;;;7.10;99.90;;;;;;4887444;29;20046;-75
2021/12/16 02:00:02;;;;;;;8.00;5.25;;;7.10;99.90;;;;;;4888110;29;20089;-75
2021/12/16 02:05:20;;;;;;;8.68;5.63;;;7.10;99.90;;;;;;4887900;29;20024;-74
2021/12/16 02:08:08;;;;;;;9.45;5.78;;;7.10;99.90;;;;;;4887853;29;20036;-75
2021/12/16 02:10:39;;;;;;;7.53;5.55;;;7.10;99.90;;;;;;4887612;29;20126;-75
2021/12/16 02:32:46;;;;;;;10.02;4.70;;;7.10;99.90;;;;;;4964715;29;20078;-74
2021/12/16 02:37:48;;;;;;;6.40;4.45;;;7.00;99.90;;;;;;4965131;29;20329;-74
2021/12/16 02:40:16;;;;;;;8.88;4.65;;;7.10;99.90;;;;;;4932478;29;20071;-74
2021/12/16 02:50:50;;;;;;;6.80;4.47;;;7.10;99.90;;;;;;4961305;29;20031;-74
2021/12/16 02:53:16;;;;;;;6.90;4.47;;;7.10;99.90;;;;;;4960982;29;20082;-73
2021/12/16 02:55:41;;;;;;;8.25;5.10;;;7.10;99.90;;;;;;4928555;29;20234;-73
2021/12/16 02:58:07;;;;;;;7.68;5.05;;;7.10;99.90;;;;;;4943928;29;20031;-73
2021/12/16 03:00:38;;;;;;;7.60;5.47;;;7.10;99.90;;;;;;4961260;29;20019;-73
2021/12/16 03:03:04;;;;;;;6.28;4.57;;;7.10;99.90;;;;;;4944249;29;20213;-73
2021/12/16 03:05:31;;;;;;;9.15;4.80;;;7.10;99.90;;;;;;4960476;29;20027;-73
2021/12/16 03:07:57;;;;;;;7.22;5.13;;;7.10;99.90;;;;;;4961956;29;20034;-73
2021/12/16 03:15:48;;;;;;;7.80;5.60;;;7.00;99.90;;;;;;4960630;29;20055;-73
2021/12/16 03:18:30;;;;;;;7.18;4.85;;;7.00;99.90;;;;;;4963134;29;20027;-73
2021/12/16 03:21:16;;;;;;;8.98;5.57;;;7.00;99.90;;;;;;4947413;29;20019;-74
2021/12/16 03:37:15;;;;;;;12.55;6.20;;;6.90;99.90;;;;;;4964308;29;20205;-73
2021/12/16 03:39:59;;;;;;;10.50;6.20;;;7.00;99.90;;;;;;4964640;29;20018;-74
2021/12/16 03:42:34;;;;;;;8.52;5.40;;;6.90;99.90;;;;;;4964063;29;20090;-73
2021/12/16 03:46:25;;;;;;;10.38;5.85;;;7.00;99.90;;;;;;4964181;29;20030;-73
2021/12/16 03:48:04;;;;;;;9.88;6.32;;;7.00;99.90;;;;;;4963851;29;20317;-73
2021/12/16 03:50:29;;;;;;;8.52;5.93;;;7.00;99.90;;;;;;4963914;29;20046;-74
2021/12/16 03:52:55;;;;;;;10.90;6.35;;;7.00;99.90;;;;;;4964202;29;20297;-74
2021/12/16 03:55:21;;;;;;;10.30;6.78;;;7.00;99.90;;;;;;4946797;29;20115;-74
2021/12/16 03:57:48;;;;;;;11.13;6.93;;;6.90;99.90;;;;;;4964248;29;20031;-73
2021/12/16 04:00:22;;;;;;;9.10;6.75;;;6.90;99.90;;;;;;4965941;28;20301;-74
2021/12/16 04:02:48;;;;;;;8.30;6.03;;;7.00;99.90;;;;;;4968074;29;20294;-74
2021/12/16 04:05:15;;;;;;;11.35;6.70;;;7.00;99.90;;;;;;4967111;29;20055;-74
2021/12/16 04:07:43;;;;;;;9.10;6.50;;;7.00;99.90;;;;;;4967526;29;20019;-74
2021/12/16 04:10:17;;;;;;;10.02;6.47;;;7.00;99.90;;;;;;4950196;29;20023;-73
2021/12/16 04:12:43;;;;;;;11.50;6.97;;;7.00;99.90;;;;;;4967516;29;20090;-73
2021/12/16 04:15:11;;;;;;;9.38;6.30;;;6.90;99.90;;;;;;4950300;29;20051;-72
2021/12/16 04:17:37;;;;;;;9.82;6.63;;;6.90;99.90;;;;;;4950464;29;20302;-72
2021/12/16 04:20:10;;;;;;;10.73;6.70;;;6.90;99.90;;;;;;4967588;29;20023;-72
2021/12/16 04:22:42;;;;;;;11.52;7.05;;;6.90;99.90;;;;;;4967757;29;20023;-72
2021/12/16 04:25:18;;;;;;;13.75;7.82;;;6.90;99.90;;;;;;4967261;29;20027;-73
2021/12/16 04:27:45;;;;;;;12.57;6.68;;;6.90;99.90;;;;;;4967035;29;20116;-73
2021/12/16 04:30:14;;;;;;;9.85;7.47;;;6.90;99.90;;;;;;4949858;29;20027;-73
2021/12/16 04:32:41;;;;;;;12.57;6.57;;;6.90;99.90;;;;;;4949739;29;20094;-72
2021/12/16 04:35:08;;;;;;;9.80;7.22;;;6.90;99.90;;;;;;4967610;29;20019;-72
2021/12/16 04:37:34;;;;;;;10.77;7.40;;;6.90;99.90;;;;;;4966545;29;20314;-72
2021/12/16 04:40:02;;;;;;;10.75;7.45;;;6.90;99.90;;;;;;4966898;29;20019;-71
2021/12/16 04:42:29;;;;;;;13.65;7.75;;;7.00;99.90;;;;;;4965577;29;20037;-71
2021/12/16 04:44:55;;;;;;;12.30;7.47;;;7.00;99.90;;;;;;4966761;29;20090;-71
2021/12/16 04:47:21;;;;;;;11.82;7.78;;;7.00;99.90;;;;;;4948929;29;20023;-72
2021/12/16 04:49:47;;;;;;;12.13;7.90;;;6.90;99.90;;;;;;4966801;29;20031;-72
2021/12/16 04:52:18;;;;;;;11.85;8.10;;;7.00;99.90;;;;;;4966631;29;20027;-72
2021/12/16 04:54:47;;;;;;;13.13;7.93;;;7.10;99.90;;;;;;4949586;29;20023;-72
2021/12/16 04:57:14;;;;;;;13.07;10.02;;;7.10;99.90;;;;;;4966578;29;20034;-74
2021/12/16 04:59:40;;;;;;;10.90;8.20;;;7.10;99.90;;;;;;4949952;29;20023;-76
2021/12/16 05:02:13;;;;;;;14.75;8.57;;;7.10;99.90;;;;;;4963658;29;20023;-76
2021/12/16 05:04:39;;;;;;;12.82;8.27;;;7.20;99.90;;;;;;4963785;29;20082;-75
2021/12/16 05:07:05;;;;;;;13.02;8.73;;;7.10;99.90;;;;;;4963490;29;20375;-76
2021/12/16 05:12:10;;;;;;;12.73;8.63;;;7.00;99.90;;;;;;4965067;28;20309;-75
2021/12/16 05:14:37;;;;;;;16.65;8.25;;;7.00;99.90;;;;;;4965933;29;20043;-76
2021/12/16 05:17:09;;;;;;;11.15;7.88;;;6.90;99.90;;;;;;4965652;29;20146;-76
2021/12/16 05:19:38;;;;;;;11.50;8.15;;;6.90;99.90;;;;;;4966158;29;20068;-75
2021/12/16 05:24:50;;;;;;;10.52;7.20;;;6.90;99.90;;;;;;4966467;29;20034;-75
2021/12/16 05:27:15;;;;;;;14.98;8.35;;;6.90;99.90;;;;;;4949057;29;20094;-75
2021/12/16 05:29:41;;;;;;;11.25;7.75;;;6.90;99.90;;;;;;4949209;29;20214;-74
2021/12/16 05:32:07;;;;;;;10.32;7.32;;;6.90;99.90;;;;;;4966148;29;20086;-75
2021/12/16 05:34:33;;;;;;;9.80;6.75;;;6.90;99.90;;;;;;4965685;29;20027;-74
2021/12/16 05:36:59;;;;;;;10.45;7.32;;;6.90;99.90;;;;;;4949090;29;20201;-74
2021/12/16 05:39:25;;;;;;;10.10;6.60;;;6.90;99.90;;;;;;4965894;29;20027;-75
2021/12/16 05:41:51;;;;;;;11.60;6.68;;;6.90;99.90;;;;;;4966115;29;20050;-75
2021/12/16 05:44:17;;;;;;;10.90;6.75;;;6.90;99.90;;;;;;4948601;29;20034;-74
2021/12/16 05:46:44;;;;;;;10.07;6.80;;;6.90;99.90;;;;;;4965957;29;20051;-75
2021/12/16 05:49:13;;;;;;;9.98;6.72;;;6.90;99.90;;;;;;4965780;29;20038;-75
2021/12/16 05:51:42;;;;;;;9.45;7.07;;;6.90;99.90;;;;;;4948431;29;20202;-74
2021/12/16 05:54:08;;;;;;;8.57;6.53;;;6.90;99.90;;;;;;4966269;29;20030;-75
2021/12/16 05:56:35;;;;;;;10.80;6.43;;;6.90;99.90;;;;;;4965410;29;20254;-75
2021/12/16 05:59:02;;;;;;;9.10;6.28;;;6.90;99.90;;;;;;4965950;29;20062;-75
2021/12/16 06:01:32;;;;;;;8.38;5.80;;;6.90;99.90;;;;;;4948310;29;20023;-75
2021/12/16 06:03:58;;;;;;;8.63;6.72;;;6.90;99.90;;;;;;4948793;29;20209;-74
2021/12/16 06:06:25;;;;;;;10.07;6.18;;;6.90;99.90;;;;;;4948171;29;20019;-74
2021/12/16 06:08:53;;;;;;;9.07;5.93;;;6.90;99.90;;;;;;4964530;29;20074;-74
2021/12/16 06:11:24;;;;;;;9.02;6.82;;;6.90;99.90;;;;;;4964049;29;20019;-74
2021/12/16 06:14:13;;;;;;;8.95;6.13;;;6.90;99.90;;;;;;4965892;29;20039;-74
2021/12/16 06:28:02;;;;;;;9.32;6.00;;;6.90;99.90;;;;;;4965103;29;20054;-73
2021/12/16 06:30:30;;;;;;;9.88;7.10;;;6.90;99.90;;;;;;4947541;29;20155;-73
2021/12/16 06:32:57;;;;;;;8.45;6.80;;;6.90;99.90;;;;;;4964931;29;20019;-74
2021/12/16 06:35:23;;;;;;;8.13;6.07;;;6.90;99.90;;;;;;4947513;29;20023;-74
2021/12/16 06:37:50;;;;;;;8.30;6.25;;;6.90;99.90;;;;;;4947772;29;20055;-74
2021/12/16 06:40:16;;;;;;;8.98;6.40;;;6.90;99.90;;;;;;4947554;29;20024;-74
2021/12/16 06:42:43;;;;;;;10.52;6.25;;;6.90;99.90;;;;;;4964599;29;20063;-73
2021/12/16 06:45:15;;;;;;;10.30;7.20;;;6.80;99.90;;;;;;4965134;29;20015;-74
2021/12/16 06:47:59;;;;;;;11.27;6.65;;;6.80;99.90;;;;;;4964285;29;20023;-74
2021/12/16 06:51:13;;;;;;;9.82;7.15;;;6.80;99.90;;;;;;4964559;29;20294;-74
2021/12/16 06:53:25;;;;;;;9.00;6.55;;;6.80;99.90;;;;;;4954584;29;20031;-74
2021/12/16 07:01:14;;;;;;;8.95;6.50;;;6.90;99.90;;;;;;4964979;29;19926;-75
2021/12/16 07:03:47;;;;;;;10.10;6.65;;;6.90;99.90;;;;;;4963316;29;20023;-74
2021/12/16 07:06:18;;;;;;;11.80;8.00;;;6.90;99.90;;;;;;4947798;29;20023;-73
2021/12/16 07:08:44;;;;;;;10.32;7.13;;;6.80;99.90;;;;;;4948026;29;20070;-72
2021/12/16 07:11:13;;;;;;;10.93;7.40;;;6.80;99.90;;;;;;4947684;29;20050;-72
2021/12/16 07:13:41;;;;;;;11.63;7.65;;;6.80;99.90;;;;;;4964159;29;20043;-73
2021/12/16 07:16:09;;;;;;;11.40;8.15;;;6.80;99.90;;;;;;4947626;29;20356;-74
2021/12/16 07:18:40;;;;;;;12.95;8.65;;;6.80;99.90;;;;;;4964201;29;20031;-74
2021/12/16 07:21:07;;;;;;;10.65;7.72;;;6.80;99.90;;;;;;4947659;29;20027;-76
2021/12/16 07:23:33;;;;;;;11.95;7.65;;;6.80;99.90;;;;;;4931207;29;20286;-73
2021/12/16 07:25:59;;;;;;;12.60;8.10;;;6.80;99.90;;;;;;4947681;29;20038;-74
2021/12/16 07:28:26;;;;;;;11.13;8.07;;;6.80;99.90;;;;;;4946966;29;20121;-73
2021/12/16 07:30:52;;;;;;;10.98;7.85;;;6.80;99.90;;;;;;4947569;29;20019;-73
2021/12/16 07:33:18;;;;;;;13.55;8.98;;;6.70;99.90;;;;;;4947585;29;20027;-74
2021/12/16 07:35:45;;;;;;;10.43;7.53;;;6.70;99.90;;;;;;4949942;29;20099;-74
2021/12/16 07:38:12;;;;;;;11.35;8.68;;;6.70;99.90;;;;;;4967936;29;20333;-74
2021/12/16 07:40:39;;;;;;;11.25;8.15;;;6.70;99.90;;;;;;4950408;29;20027;-73
2021/12/16 07:45:35;;;;;;;11.80;8.02;;;6.70;99.90;;;;;;4967323;29;20226;-73
2021/12/16 07:48:01;;;;;;;13.23;8.38;;;6.70;99.90;;;;;;4967488;29;20027;-75
2021/12/16 07:50:27;;;;;;;15.20;8.77;;;6.70;99.90;;;;;;4967183;29;20023;-77
2021/12/16 07:52:53;;;;;;;10.73;7.90;;;6.70;99.90;;;;;;4967717;29;20310;-72
2021/12/16 07:55:21;;;;;;;9.77;7.38;;;6.80;99.90;;;;;;4950584;29;20023;-76
2021/12/16 07:57:46;;;;;;;11.27;7.55;;;6.80;99.90;;;;;;4950251;29;20023;-74
2021/12/16 08:00:21;;;;;;;10.57;7.97;;;6.80;99.90;;;;;;4950652;29;20229;-73
2021/12/16 08:02:47;;;;;;;14.25;8.25;;;6.80;99.90;;;;;;4967366;29;20306;-74
2021/12/16 08:05:13;;;;;;;10.98;7.60;;;6.80;99.90;;;;;;4968052;29;20066;-75
2021/12/16 08:07:40;;;;;;;11.43;7.85;;;6.70;99.90;;;;;;4950330;29;20050;-74
2021/12/16 08:10:10;;;;;;;10.93;7.60;;;6.70;99.90;;;;;;4966188;29;20045;-75
2021/12/16 08:12:36;;;;;;;10.75;7.70;;;6.80;99.90;;;;;;4967475;29;20027;-75
2021/12/16 08:15:04;;;;;;;10.75;7.07;;;6.80;99.90;;;;;;4967636;29;20039;-75
2021/12/16 08:17:30;;;;;;;10.88;7.75;;;6.90;99.90;;;;;;4966987;29;20023;-74
2021/12/16 08:19:55;;;;;;;9.60;7.10;;;6.90;99.90;;;;;;4950518;29;20074;-75
2021/12/16 08:22:21;;;;;;;11.48;7.38;;;6.80;99.90;;;;;;4967628;29;20057;-72
2021/12/16 08:24:47;;;;;;;10.68;7.35;;;6.80;99.90;;;;;;4967094;29;20194;-74
2021/12/16 08:27:14;;;;;;;10.52;6.68;;;6.80;99.90;;;;;;4967555;29;20023;-73
2021/12/16 08:29:40;;;;;;;10.35;7.13;;;6.90;99.90;;;;;;4966978;29;20038;-76
2021/12/16 08:32:07;;;;;;;9.25;6.45;;;6.80;99.90;;;;;;4967462;29;20021;-76
2021/12/16 08:34:36;;;;;;;10.55;6.88;;;6.90;99.90;;;;;;4967005;29;20027;-74
2021/12/16 08:37:02;;;;;;;9.77;6.13;;;6.90;99.90;;;;;;4966295;29;20078;-75
2021/12/16 08:39:28;;;;;;;10.10;6.50;;;6.90;99.90;;;;;;4966608;29;20023;-74
2021/12/16 08:41:56;;;;;;;7.70;5.65;;;6.90;99.90;;;;;;4967200;29;20042;-74
2021/12/16 08:44:41;;;;;;;9.48;6.50;;;6.90;99.90;;;;;;4967109;29;20027;-72
2021/12/16 08:47:10;;;;;;;8.55;6.10;;;6.90;99.90;;;;;;4965920;28;20310;-73
2021/12/16 08:49:36;;;;;;;9.65;5.65;;;6.90;99.90;;;;;;4966032;29;20071;-74
2021/12/16 08:52:08;;;;;;;7.38;4.90;;;7.00;99.90;;;;;;4966921;29;20296;-71
2021/12/16 08:54:35;;;;;;;8.27;5.80;;;7.00;99.90;;;;;;4965583;29;20027;-74
2021/12/16 08:57:01;;;;;;;5.85;4.45;;;7.00;99.90;;;;;;4948013;29;20019;-79
2021/12/16 08:59:28;;;;;;;6.20;4.38;;;7.00;99.90;;;;;;4949370;29;20027;-81
2021/12/16 09:01:57;;;;;;;6.77;4.57;;;7.10;99.90;;;;;;4948837;29;20026;-78
2021/12/16 09:04:23;;;;;;;;;;;7.10;99.90;;;;;;4966873;29;20078;-80
2021/12/16 09:06:51;;;;;;;9.43;4.38;;;7.10;99.90;;;;;;4948991;29;19903;-74
2021/12/16 09:09:17;;;;;;;6.13;4.13;;;7.10;99.90;;;;;;4949347;29;20035;-74
2021/12/16 09:12:00;;;;;;;6.03;3.90;;;7.10;99.90;;;;;;4933034;29;20023;-75
2021/12/16 09:14:26;;;;;;;5.80;4.22;;;7.00;99.90;;;;;;4966120;29;20042;-74
2021/12/16 09:16:52;;;;;;;6.25;4.35;;;7.10;99.90;;;;;;4948623;29;20026;-75
2021/12/16 09:19:17;;;;;;;6.85;3.80;;;7.10;99.90;;;;;;4948995;29;20328;-75
2021/12/16 09:21:43;;;;;;;6.13;4.20;;;7.10;99.90;;;;;;4948530;29;20070;-75
2021/12/16 09:24:14;;;;;;;6.75;3.70;;;7.10;99.90;;;;;;4966019;29;20278;-76
2021/12/16 09:26:44;;;;;;;5.55;3.80;;;7.10;99.90;;;;;;4965331;29;20030;-72
2021/12/16 09:29:10;;;;;;;5.28;3.40;;;7.10;99.90;;;;;;4966015;29;20023;-75
2021/12/16 09:31:37;;;;;;;6.63;4.00;;;7.10;99.90;;;;;;4965054;29;20019;-75
2021/12/16 09:34:07;;;;;;;5.32;3.55;;;7.10;99.90;;;;;;4965465;29;20082;-74
2021/12/16 09:36:36;;;;;;;5.72;3.17;;;7.20;99.90;;;;;;4947516;29;20321;-74
2021/12/16 09:39:06;;;;;;;6.32;3.08;;;7.20;99.90;;;;;;4948193;29;20027;-73
2021/12/16 09:41:32;;;;;;;4.40;3.10;;;7.30;99.90;;;;;;4964636;29;20091;-74
2021/12/16 09:43:59;;;;;;;3.78;2.42;;;7.20;99.90;;;;;;4961808;29;20027;-75
2021/12/16 09:46:28;;;;;;;4.40;2.20;;;7.30;99.90;;;;;;4961599;29;20369;-74
2021/12/16 09:48:56;;;;;;;4.35;2.80;;;7.30;99.90;;;;;;4961151;29;20027;-76
2021/12/16 09:51:25;;;;;;;4.15;3.00;;;7.30;99.90;;;;;;4961582;29;20051;-74
2021/12/16 09:53:55;;;;;;;3.25;2.30;;;7.30;99.90;;;;;;4960933;29;20384;-74
2021/12/16 09:56:23;;;;;;;4.05;2.20;;;7.30;99.90;;;;;;4961102;29;20029;-73
2021/12/16 09:58:50;;;;;;;4.53;2.33;;;7.30;99.90;;;;;;4958996;28;20106;-74
2021/12/16 10:01:17;;;;;;;3.55;2.55;;;7.30;99.90;;;;;;4944143;29;20030;-73
2021/12/16 10:03:47;;;;;;;4.20;2.40;;;7.40;99.90;;;;;;4960483;29;20042;-77
2021/12/16 10:06:14;;;;;;;4.85;2.90;;;7.30;99.90;;;;;;4960122;29;20030;-77
2021/12/16 10:08:40;;;;;;;4.15;2.55;;;7.40;99.90;;;;;;4943228;29;20031;-74
2021/12/16 10:11:07;;;;;;;4.90;2.30;;;7.30;99.90;;;;;;4961425;29;20020;-75
2021/12/16 10:13:59;;;;;;;4.57;2.90;;;7.30;99.90;;;;;;4943481;29;20025;-75
2021/12/16 10:19:12;;;;;;;5.28;3.03;;;7.30;99.90;;;;;;4960780;29;20045;-73
2021/12/16 10:21:41;;;;;;;12.93;4.20;;;7.20;99.90;;;;;;4960905;29;20023;-73
2021/12/16 10:24:32;;;;;;;7.05;2.97;;;7.20;99.90;;;;;;4943639;29;20023;-74
2021/12/16 10:27:26;;;;;;;4.75;2.97;;;7.20;99.90;;;;;;4961291;29;20289;-72
2021/12/16 10:29:56;;;;;;;3.95;2.75;;;7.20;99.90;;;;;;4957602;29;20449;-74
2021/12/16 10:32:42;;;;;;;3.78;2.78;;;7.20;99.90;;;;;;4943070;29;20019;-72
2021/12/16 10:35:13;;;;;;;6.40;3.25;;;7.20;99.90;;;;;;4960813;29;20090;-73
2021/12/16 10:37:49;;;;;;;7.38;3.03;;;7.20;99.90;;;;;;4960951;29;20023;-72
2021/12/16 10:40:40;;;;;;;4.57;3.67;;;7.30;99.90;;;;;;4959469;29;20023;-74
2021/12/16 10:43:24;;;;;;;5.55;3.30;;;7.30;99.90;;;;;;4943591;29;20144;-74
2021/12/16 10:45:55;;;;;;;4.63;3.28;;;7.20;99.90;;;;;;4960665;29;20078;-74
2021/12/16 10:48:32;;;;;;;8.10;4.60;;;7.20;99.90;;;;;;4943691;29;20361;-74
2021/12/16 10:51:07;;;;;;;5.00;3.33;;;7.20;99.90;;;;;;4959056;29;20102;-74
2021/12/16 10:53:45;;;;;;;5.60;3.35;;;7.10;99.90;;;;;;4943731;29;20027;-72
2021/12/16 10:56:11;;;;;;;8.68;4.28;;;7.10;99.90;;;;;;4942839;29;20313;-74
2021/12/16 10:59:00;;;;;;;7.10;3.83;;;7.20;99.90;;;;;;4960399;29;20031;-74
2021/12/16 11:01:54;;;;;;;6.25;3.40;;;7.20;99.90;;;;;;4960985;29;20030;-74
2021/12/16 11:04:24;;;;;;;4.93;3.28;;;7.10;99.90;;;;;;4960527;29;20023;-74
2021/12/16 11:06:57;;;;;;;6.90;3.83;;;7.10;99.90;;;;;;4960064;29;20019;-74
2021/12/16 11:09:35;;;;;;;4.32;3.35;;;7.20;99.90;;;;;;4959750;29;20031;-73
2021/12/16 11:12:18;;;;;;;5.13;3.95;;;7.20;99.90;;;;;;4960668;29;20027;-74
2021/12/16 11:14:51;;;;;;;8.52;4.18;;;7.20;99.90;;;;;;4959827;29;20242;-72
2021/12/16 11:17:19;;;;;;;7.18;4.75;;;7.20;99.90;;;;;;4960576;29;20102;-73
2021/12/16 11:19:49;;;;;;;7.60;3.57;;;7.20;99.90;;;;;;4959886;29;20027;-73
2021/12/16 11:22:19;;;;;;;4.43;3.38;;;7.20;99.90;;;;;;4942981;29;20283;-73
2021/12/16 11:24:45;;;;;;;7.00;3.60;;;7.20;99.90;;;;;;4959893;29;20023;-74
2021/12/16 11:27:33;;;;;;;4.68;3.50;;;7.20;99.90;;;;;;4945338;29;20071;-76
2021/12/16 11:30:19;;;;;;;6.65;3.50;;;7.10;99.90;;;;;;4962060;29;20031;-74
2021/12/16 11:32:48;;;;;;;4.95;2.85;;;7.20;99.90;;;;;;4962382;29;20023;-76
2021/12/16 11:35:47;;;;;;;7.93;4.07;;;7.30;99.90;;;;;;4946421;29;20020;-76
2021/12/16 11:38:24;;;;;;;4.95;3.22;;;7.30;99.90;;;;;;4946553;29;20054;-75
2021/12/16 11:41:21;;;;;;;5.88;3.08;;;7.30;99.90;;;;;;4946006;29;20023;-73
2021/12/16 11:43:46;;;;;;;7.80;3.88;;;7.30;99.90;;;;;;4962205;29;20031;-72
2021/12/16 11:46:27;;;;;;;6.60;3.90;;;7.40;99.90;;;;;;4946275;29;20034;-73
2021/12/16 11:49:00;;;;;;;4.75;3.67;;;7.50;99.90;;;;;;4945698;29;20094;-72
2021/12/16 11:51:45;;;;;;;5.47;3.35;;;7.50;99.90;;;;;;4946358;29;20094;-73
2021/12/16 11:54:40;;;;;;;8.40;3.85;;;7.50;99.90;;;;;;4946158;29;20222;-76
2021/12/16 11:57:18;;;;;;;4.80;3.13;;;7.50;99.90;;;;;;4952759;29;20054;-75
2021/12/16 11:59:55;;;;;;;8.77;3.75;;;7.60;99.90;;;;;;4962615;29;20066;-73
2021/12/16 12:02:34;;;;;;;7.13;4.03;;;7.60;99.90;;;;;;4963395;29;20057;-72
2021/12/16 12:05:21;;;;;;;7.60;4.43;;;7.60;99.90;;;;;;4963311;29;20023;-74
2021/12/16 12:07:53;;;;;;;7.82;3.53;;;7.60;99.90;;;;;;4962708;29;20038;-73
2021/12/16 12:10:38;;;;;;;6.00;3.75;;;7.50;99.90;;;;;;4963398;29;20094;-73
2021/12/16 12:13:07;;;;;;;6.68;4.55;;;7.50;99.90;;;;;;4963090;29;20214;-72
2021/12/16 12:15:35;;;;;;;5.25;3.80;;;7.60;99.90;;;;;;4962668;29;20055;-74
2021/12/16 12:18:01;;;;;;;5.75;3.67;;;7.60;99.90;;;;;;4963051;29;20026;-76
2021/12/16 12:20:33;;;;;;;8.05;3.47;;;7.60;99.90;;;;;;4946854;29;20031;-76
2021/12/16 12:23:01;;;;;;;9.23;4.45;;;7.60;99.90;;;;;;4966871;29;20054;-74
2021/12/16 12:25:27;;;;;;;8.80;5.75;;;7.60;99.90;;;;;;4964025;29;20019;-73
2021/12/16 12:27:53;;;;;;;9.48;4.90;;;7.60;99.90;;;;;;4964913;29;20030;-75
2021/12/16 12:30:19;;;;;;;9.02;4.60;;;7.70;99.90;;;;;;4966031;29;20023;-74
2021/12/16 12:32:48;;;;;;;9.50;4.85;;;7.60;99.90;;;;;;4948413;29;20202;-74
2021/12/16 12:35:20;;;;;;;5.07;3.97;;;7.60;99.90;;;;;;4966181;29;20027;-74
2021/12/16 12:37:49;;;;;;;7.97;4.80;;;7.60;99.90;;;;;;4965955;29;20023;-75
2021/12/16 12:40:22;;;;;;;14.63;4.75;;;7.60;99.90;;;;;;4965779;29;20063;-74
2021/12/16 12:42:50;;;;;;;14.30;6.15;;;7.60;99.90;;;;;;4964561;29;20098;-73
2021/12/16 12:45:19;;;;;;;8.00;5.20;;;7.60;99.90;;;;;;4948538;29;20023;-75
2021/12/16 12:47:49;;;;;;;12.25;5.78;;;7.60;99.90;;;;;;4965363;29;20018;-72
2021/12/16 12:50:33;;;;;;;8.82;5.05;;;7.60;99.90;;;;;;4948913;29;20305;-74
2021/12/16 12:53:23;;;;;;;8.02;4.45;;;7.60;99.90;;;;;;4964273;29;20062;-74
2021/12/16 12:55:56;;;;;;;10.15;5.50;;;7.60;99.90;;;;;;4950420;29;20019;-75
2021/12/16 12:58:24;;;;;;;8.40;5.07;;;7.70;99.90;;;;;;4965946;29;20030;-73
2021/12/16 13:00:55;;;;;;;6.30;4.70;;;7.70;99.90;;;;;;4964993;29;20037;-74
2021/12/16 13:03:29;;;;;;;7.40;4.60;;;7.70;99.90;;;;;;4965754;29;20091;-74
2021/12/16 13:05:59;;;;;;;6.75;5.05;;;7.70;99.90;;;;;;4965354;29;20023;-75
2021/12/16 13:08:31;;;;;;;7.57;5.22;;;7.80;99.90;;;;;;4948491;29;20147;-74
2021/12/16 13:11:14;;;;;;;10.52;6.13;;;7.70;99.90;;;;;;4964193;29;20104;-74
2021/12/16 13:14:06;;;;;;;8.48;6.15;;;7.70;99.90;;;;;;4964709;29;20212;-74
2021/12/16 13:28:04;;;;;;;9.13;7.13;;;7.60;99.90;;;;;;4964708;29;20139;-75
2021/12/16 13:30:39;;;;;;;9.93;7.47;;;7.60;99.90;;;;;;4964959;29;20046;-75
2021/12/16 13:33:25;;;;;;;14.55;8.05;;;7.60;99.90;;;;;;4947611;29;20027;-79
2021/12/16 13:36:05;;;;;;;9.55;7.30;;;7.60;99.90;;;;;;4947652;29;20279;-73
2021/12/16 13:38:41;;;;;;;11.50;7.85;;;7.50;99.90;;;;;;4948041;29;20027;-73
2021/12/16 13:41:13;;;;;;;9.15;8.02;;;7.50;99.90;;;;;;4965157;29;20030;-73
2021/12/16 13:43:53;;;;;;;11.00;7.13;;;7.50;99.90;;;;;;4963189;29;20023;-73
2021/12/16 13:46:44;;;;;;;9.93;7.88;;;7.50;99.90;;;;;;4963263;29;20332;-75
2021/12/16 14:05:58;;;;;;;10.27;7.45;;;7.50;99.90;;;;;;4962515;29;20027;-71
2021/12/16 14:08:35;;;;;;;12.60;7.47;;;7.50;99.90;;;;;;4944309;29;20090;-69
2021/12/16 14:11:16;;;;;;;9.88;7.65;;;7.50;99.90;;;;;;4960159;29;20042;-70
2021/12/16 14:17:29;;;;;;;9.57;7.90;;;7.50;99.90;;;;;;4960707;29;20182;-70
2021/12/16 14:25:19;;;;;;;15.43;8.18;;;7.40;99.90;;;;;;4959948;29;20070;-71
2021/12/16 14:39:28;;;;;;;9.23;8.13;;;7.50;99.90;;;;;;4960548;29;20026;-70
2021/12/16 14:42:06;;;;;;;12.93;8.55;;;7.40;99.90;;;;;;4959839;29;20061;-68
2021/12/16 14:50:05;;;;;;;9.05;7.25;;;7.40;99.90;;;;;;4923404;29;20326;-69
2021/12/16 14:52:32;;;;;;;15.90;9.20;;;7.40;99.90;;;;;;4943273;29;20105;-70
2021/12/16 14:55:08;;;;;;;11.30;7.53;;;7.30;99.90;;;;;;4942340;29;20030;-72
2021/12/16 14:57:40;;;;;;;13.50;7.95;;;7.30;99.90;;;;;;4958941;29;20054;-70
2021/12/16 15:00:20;;;;;;;13.52;7.72;;;7.30;99.90;;;;;;4959963;29;20038;-72
2021/12/16 15:02:48;;;;;;;11.18;6.97;;;7.30;99.90;;;;;;4941891;29;20031;-70
2021/12/16 15:05:43;;;;;;;;;;;7.30;99.90;;;;;;4943018;29;20058;-71
2021/12/16 15:08:27;;;;;;;10.02;7.43;;;7.30;99.90;;;;;;4940506;29;19909;-71
2021/12/16 15:10:55;;;;;;;10.10;7.00;;;7.40;99.90;;;;;;4958010;29;20027;-71
2021/12/16 15:13:38;;;;;;;11.05;7.93;;;7.40;99.90;;;;;;4942660;29;20094;-70
2021/12/16 15:16:18;;;;;;;11.35;7.20;;;7.40;99.90;;;;;;4959148;29;20051;-70
2021/12/16 15:42:46;;;;;;;9.85;6.05;;;7.30;99.90;;;;;;4963604;29;20051;-71
2021/12/16 15:43:33;;;;;;;9.80;6.38;;;7.30;99.90;;;;;;4946104;29;20038;-70
2021/12/16 15:46:03;;;;;;;8.00;5.72;;;7.30;99.90;;;;;;4963010;29;20040;-70
2021/12/16 15:48:29;;;;;;;10.38;6.18;;;7.20;99.90;;;;;;4963586;29;20195;-70
2021/12/16 15:50:57;;;;;;;9.13;6.00;;;7.20;99.90;;;;;;4963359;29;20034;-70
2021/12/16 15:53:38;;;;;;;9.75;7.00;;;7.20;99.90;;;;;;4963596;29;20082;-68
2021/12/16 15:56:18;;;;;;;9.68;6.10;;;7.20;99.90;;;;;;4946944;29;20050;-70
2021/12/16 15:58:55;;;;;;;9.90;6.50;;;7.20;99.90;;;;;;4966453;29;20027;-70
2021/12/16 16:01:35;;;;;;;8.20;6.45;;;7.20;99.90;;;;;;4966986;29;20242;-69
2021/12/16 16:04:09;;;;;;;9.07;6.43;;;7.20;99.90;;;;;;4966513;29;20027;-70
2021/12/16 16:06:35;;;;;;;7.47;6.03;;;7.20;99.90;;;;;;4949422;29;20046;-69
2021/12/16 16:09:10;;;;;;;7.43;6.18;;;7.20;99.90;;;;;;4966152;29;20328;-69
2021/12/16 16:11:38;;;;;;;8.02;6.32;;;7.20;99.90;;;;;;4949261;29;20243;-69
2021/12/16 16:14:06;;;;;;;7.10;5.53;;;7.10;99.90;;;;;;4948939;29;20183;-69
2021/12/16 16:16:39;;;;;;;7.50;5.80;;;7.20;99.90;;;;;;4946492;29;20047;-69
2021/12/16 16:19:08;;;;;;;9.32;5.70;;;7.20;99.90;;;;;;4962465;29;20027;-70
2021/12/16 16:21:41;;;;;;;6.97;5.53;;;7.20;99.90;;;;;;4963204;29;20019;-70
2021/12/16 16:24:13;;;;;;;8.45;6.15;;;7.20;99.90;;;;;;4962597;29;20239;-70
2021/12/16 16:26:41;;;;;;;7.63;5.53;;;7.20;99.90;;;;;;4945668;29;20217;-69
2021/12/16 16:29:10;;;;;;;6.75;5.43;;;7.20;99.90;;;;;;4962147;29;20217;-70
2021/12/16 16:31:37;;;;;;;6.60;5.25;;;7.20;99.90;;;;;;4961565;29;20146;-70
2021/12/16 16:34:10;;;;;;;7.00;5.43;;;7.10;99.90;;;;;;4962230;29;20226;-70
2021/12/16 16:36:42;;;;;;;8.50;4.97;;;7.20;99.90;;;;;;4963501;29;20023;-69
2021/12/16 16:39:11;;;;;;;7.82;4.75;;;7.20;99.90;;;;;;4962622;29;20038;-69
2021/12/16 16:41:43;;;;;;;7.50;5.22;;;7.20;99.90;;;;;;4962718;29;20036;-69
2021/12/16 16:44:12;;;;;;;6.18;4.78;;;7.20;99.90;;;;;;4945280;29;20027;-70
2021/12/16 16:46:57;;;;;;;5.38;4.22;;;7.10;99.90;;;;;;4962421;29;20016;-75
2021/12/16 16:49:34;;;;;;;7.68;5.53;;;7.10;99.90;;;;;;4962005;29;20031;-71
2021/12/16 16:52:03;;;;;;;6.15;4.65;;;7.20;99.90;;;;;;4961864;29;20035;-69
2021/12/16 16:54:38;;;;;;;5.43;4.00;;;7.10;99.90;;;;;;4962131;29;20027;-70
2021/12/16 16:57:19;;;;;;;5.43;4.07;;;7.10;99.90;;;;;;4961857;29;20259;-69
2021/12/16 16:59:52;;;;;;;5.18;4.07;;;7.20;99.90;;;;;;4944558;29;20179;-71
2021/12/16 17:02:27;;;;;;;4.57;3.67;;;7.20;99.90;;;;;;4962090;29;20370;-70
2021/12/16 17:05:00;;;;;;;4.28;3.63;;;7.20;99.90;;;;;;4944835;29;20019;-70
2021/12/16 17:07:36;;;;;;;3.92;3.28;;;7.20;99.90;;;;;;4961389;28;20019;-69
2021/12/16 17:10:03;;;;;;;5.05;3.28;;;7.30;99.90;;;;;;4961789;29;20050;-70
2021/12/16 17:12:35;;;;;;;5.00;3.78;;;7.20;99.90;;;;;;4961899;29;20030;-70
2021/12/16 17:15:20;;;;;;;4.80;3.33;;;7.20;99.90;;;;;;4956543;29;20047;-69
2021/12/16 17:17:46;;;;;;;4.32;3.40;;;7.20;99.90;;;;;;4959731;29;20243;-70